createdAt,value
2018-04-23T00:00:07.465Z,7.30
2018-04-23T00:05:10.614Z,16.27
2018-04-23T00:10:13.967Z,19.43
2018-04-23T00:15:17.180Z,9.37
2018-04-23T00:20:20.740Z,9.20
2018-04-23T00:25:23.512Z,12.50
2018-04-23T00:30:26.268Z,12.43
2018-04-23T00:35:30.206Z,10.13
2018-04-23T00:40:32.963Z,14.90
2018-04-23T00:45:36.576Z,16.47
2018-04-23T00:50:40.169Z,11.90
2018-04-23T00:55:44.060Z,13.73
2018-04-23T01:00:46.946Z,19.73
2018-04-23T01:05:50.612Z,11.00
2018-04-23T01:10:54.241Z,25.70
2018-04-23T01:15:57.836Z,19.17
2018-04-23T01:21:00.862Z,22.40
2018-04-23T01:26:04.959Z,33.33
2018-04-23T01:31:08.063Z,22.00
2018-04-23T01:36:11.639Z,21.10
2018-04-23T01:41:14.391Z,26.50
2018-04-23T01:46:17.335Z,19.17
2018-04-23T01:51:22.139Z,39.97
2018-04-23T01:56:25.178Z,43.47
2018-04-23T02:01:28.570Z,49.33
2018-04-23T02:06:32.091Z,33.30
2018-04-23T02:11:35.078Z,42.13
2018-04-23T02:16:37.982Z,54.87
2018-04-23T02:21:41.440Z,77.20
2018-04-23T02:26:45.418Z,28.77
2018-04-23T02:31:48.927Z,30.93
2018-04-23T02:36:52.352Z,23.70
2018-04-23T02:41:55.760Z,32.70
2018-04-23T02:46:58.795Z,27.87
2018-04-23T02:52:01.567Z,32.40
2018-04-23T02:57:04.369Z,35.13
2018-04-23T03:02:07.130Z,49.83
2018-04-23T03:07:10.975Z,42.77
2018-04-23T03:12:13.754Z,44.50
2018-04-23T03:17:17.011Z,48.63
2018-04-23T03:22:21.096Z,61.93
2018-04-23T03:27:23.879Z,44.20
2018-04-23T03:32:26.736Z,74.77
2018-04-23T03:37:31.519Z,64.07
2018-04-23T03:42:34.370Z,63.00
2018-04-23T03:47:38.248Z,62.33
2018-04-23T03:52:41.241Z,83.80
2018-04-23T03:57:44.046Z,124.70
2018-04-23T04:02:48.161Z,114.67
2018-04-23T04:07:51.213Z,139.60
2018-04-23T04:16:09.600Z,156.97
2018-04-23T04:21:12.386Z,177.50
2018-04-23T04:26:15.446Z,180.47
2018-04-23T04:31:18.284Z,191.80
2018-04-23T04:36:21.047Z,209.17
2018-04-23T04:41:25.158Z,202.47
2018-04-23T04:46:28.663Z,215.07
2018-04-23T04:51:31.464Z,224.93
2018-04-23T04:56:35.850Z,232.77
2018-04-23T05:01:38.607Z,244.00
2018-04-23T05:06:41.382Z,246.70
2018-04-23T05:11:44.211Z,254.10
2018-04-23T05:16:46.964Z,232.57
2018-04-23T05:21:49.718Z,259.70
2018-04-23T05:26:54.302Z,214.33
2018-04-23T05:31:57.621Z,234.40
2018-04-23T05:37:00.415Z,241.07
2018-04-23T05:42:03.815Z,242.83
2018-04-23T05:47:06.590Z,223.77
2018-04-23T05:52:12.968Z,219.50
2018-04-23T05:57:17.097Z,233.50
2018-04-23T06:02:19.858Z,213.43
2018-04-23T06:07:22.630Z,241.60
2018-04-23T06:12:25.423Z,237.20
2018-04-23T06:17:28.496Z,244.27
2018-04-23T06:22:31.248Z,209.60
2018-04-23T06:27:34.006Z,220.10
2018-04-23T06:32:36.780Z,240.30
2018-04-23T06:37:39.618Z,225.67
2018-04-23T06:42:42.860Z,207.57
2018-04-23T06:47:45.660Z,147.90
2018-04-23T06:52:48.439Z,129.60
2018-04-23T06:57:51.612Z,127.40
2018-04-23T07:02:55.943Z,96.10
2018-04-23T07:07:58.718Z,98.97
2018-04-23T07:13:01.565Z,87.90
2018-04-23T07:18:04.401Z,42.80
2018-04-23T07:23:07.282Z,43.03
2018-04-23T07:28:10.381Z,43.60
2018-04-23T07:33:13.402Z,33.60
2018-04-23T07:38:16.175Z,45.00
2018-04-23T07:43:19.676Z,37.67
2018-04-23T07:48:22.568Z,43.50
2018-04-23T07:53:25.415Z,36.07
2018-04-23T07:58:28.494Z,37.97
2018-04-23T08:03:31.388Z,22.23
2018-04-23T08:08:34.221Z,9.33
2018-04-23T08:13:37.038Z,9.83
2018-04-23T08:18:39.778Z,7.03
2018-04-23T08:23:42.555Z,11.43
2018-04-23T08:28:45.338Z,11.47
2018-04-23T08:33:48.119Z,6.73
2018-04-23T08:38:50.884Z,7.43
2018-04-23T08:43:54.133Z,6.33
2018-04-23T08:48:56.956Z,7.73
2018-04-23T08:53:59.827Z,9.73
2018-04-23T08:59:02.657Z,6.80
2018-04-23T09:04:05.552Z,12.93
2018-04-23T09:09:08.331Z,11.97
2018-04-23T09:14:11.399Z,10.87
2018-04-23T09:19:14.191Z,7.43
2018-04-23T09:24:16.956Z,11.50
2018-04-23T09:29:20.055Z,12.03
2018-04-23T09:34:22.888Z,11.10
2018-04-23T09:39:25.710Z,8.70
2018-04-23T09:44:28.601Z,12.30
2018-04-23T09:49:31.289Z,3.80
2018-04-23T09:54:34.287Z,6.50
2018-04-23T09:59:37.067Z,6.47
2018-04-23T10:04:39.831Z,4.20
2018-04-23T10:09:42.607Z,4.90
2018-04-23T10:14:45.484Z,6.70
2018-04-23T10:19:48.264Z,9.90
2018-04-23T10:24:51.040Z,5.60
2018-04-23T10:29:53.807Z,3.33
2018-04-23T10:34:56.512Z,4.37
2018-04-23T10:39:59.268Z,8.83
2018-04-23T10:45:02.098Z,5.90
2018-04-23T10:50:04.960Z,4.13
2018-04-23T10:55:07.750Z,11.10
2018-04-23T11:00:10.822Z,3.93
2018-04-23T11:05:15.395Z,6.90
2018-04-23T11:10:18.181Z,6.33
2018-04-23T11:15:21.017Z,13.87
2018-04-23T11:20:23.807Z,12.80
2018-04-23T11:25:27.462Z,17.73
2018-04-23T11:30:30.818Z,19.67
2018-04-23T11:35:34.011Z,12.37
2018-04-23T11:40:41.984Z,12.77
2018-04-23T11:45:45.672Z,22.10
2018-04-23T11:50:48.442Z,11.10
2018-04-23T11:55:53.667Z,10.43
2018-04-23T12:01:00.800Z,13.83
2018-04-23T12:06:03.693Z,14.13
2018-04-23T12:11:06.596Z,18.17
2018-04-23T12:16:09.401Z,14.70
2018-04-23T12:21:12.169Z,22.07
2018-04-23T12:26:14.922Z,17.30
2018-04-23T12:31:17.746Z,14.03
2018-04-23T12:36:20.553Z,14.07
2018-04-23T12:41:23.312Z,8.80
2018-04-23T12:46:26.378Z,10.50
2018-04-23T12:51:29.160Z,10.03
2018-04-23T12:56:32.256Z,18.70
2018-04-23T13:01:35.132Z,10.63
2018-04-23T13:06:37.963Z,11.87
2018-04-23T13:11:40.737Z,10.63
2018-04-23T13:16:43.536Z,18.03
2018-04-23T13:21:46.315Z,12.80
2018-04-23T13:26:49.090Z,14.87
2018-04-23T13:31:52.081Z,12.70
2018-04-23T13:36:54.890Z,12.37
2018-04-23T13:41:57.720Z,21.70
2018-04-23T13:47:00.592Z,13.20
2018-04-23T13:52:03.435Z,13.20
2018-04-23T13:57:06.250Z,12.90
2018-04-23T14:02:10.523Z,8.83
2018-04-23T14:07:13.346Z,9.13
2018-04-23T14:12:16.558Z,15.93
2018-04-23T14:17:19.419Z,11.57
2018-04-23T14:22:22.246Z,11.80
2018-04-23T14:27:25.115Z,15.67
2018-04-23T14:32:28.722Z,16.20
2018-04-23T14:37:32.412Z,16.00
2018-04-23T14:42:36.331Z,20.93
2018-04-23T14:47:43.121Z,8.07
2018-04-23T14:52:46.663Z,10.67
2018-04-23T14:57:49.714Z,7.70
2018-04-23T15:02:53.143Z,15.17
2018-04-23T15:07:56.072Z,11.60
2018-04-23T15:12:58.922Z,9.43
2018-04-23T15:18:01.946Z,16.00
2018-04-23T15:23:05.002Z,15.40
2018-04-23T15:28:09.273Z,12.37
2018-04-23T15:33:13.167Z,12.07
2018-04-23T15:38:16.440Z,22.87
2018-04-23T15:43:19.489Z,9.23
2018-04-23T15:48:22.789Z,11.37
2018-04-23T15:53:25.750Z,10.03
2018-04-23T15:58:29.693Z,16.37
2018-04-23T16:03:33.211Z,12.83
2018-04-23T16:08:36.383Z,17.87
2018-04-23T16:13:39.460Z,21.97
2018-04-23T16:18:42.533Z,29.13
2018-04-23T16:23:45.798Z,10.63
2018-04-23T16:28:52.781Z,21.17
2018-04-23T16:34:08.395Z,14.20
2018-04-23T16:39:17.421Z,17.70
2018-04-23T16:44:27.167Z,20.47
2018-04-23T16:49:30.422Z,11.80
2018-04-23T16:54:38.845Z,14.10
2018-04-23T16:59:46.522Z,14.63
2018-04-23T17:04:51.869Z,21.10
2018-04-23T17:20:49.282Z,20.87
2018-04-23T17:26:01.578Z,24.10
2018-04-23T17:36:43.953Z,29.50
2018-04-23T17:42:03.801Z,17.27
2018-04-23T17:47:13.517Z,17.53
2018-04-23T17:52:21.396Z,19.97
2018-04-23T17:57:28.361Z,33.17
2018-04-23T18:02:32.810Z,31.60
2018-04-23T18:07:43.267Z,28.87
2018-04-23T18:12:51.115Z,21.33
2018-04-23T18:17:56.616Z,25.87
2018-04-23T18:23:04.840Z,33.37
2018-04-23T18:28:13.610Z,22.97
2018-04-23T18:33:18.325Z,21.70
2018-04-23T18:38:23.417Z,29.33
2018-04-23T18:43:34.359Z,43.33
2018-04-23T18:48:40.642Z,38.20
2018-04-23T18:53:48.567Z,41.77
2018-04-23T18:58:58.943Z,37.40
2018-04-23T19:04:14.590Z,38.53
2018-04-23T19:09:41.568Z,23.33
2018-04-23T19:14:49.118Z,28.00
2018-04-23T19:19:54.717Z,20.33
2018-04-23T19:25:19.194Z,71.47
2018-04-23T19:30:23.983Z,42.77
2018-04-23T19:35:30.331Z,46.20
2018-04-23T19:40:34.195Z,36.00
2018-04-23T19:45:39.163Z,37.97
2018-04-23T19:50:49.033Z,44.27
2018-04-23T19:55:55.847Z,48.10
2018-04-23T20:01:02.259Z,39.53
2018-04-23T20:06:06.737Z,62.50
2018-04-23T20:11:12.892Z,52.33
2018-04-23T20:16:17.129Z,50.47
2018-04-23T20:21:24.061Z,40.97
2018-04-23T20:26:29.034Z,47.03
2018-04-23T20:31:33.976Z,41.77
2018-04-23T20:36:39.001Z,57.73
2018-04-23T20:41:42.407Z,42.20
2018-04-23T20:46:46.860Z,40.17
2018-04-23T20:51:50.058Z,29.73
2018-04-23T20:56:54.192Z,35.53
2018-04-23T21:01:57.906Z,48.13
2018-04-23T21:07:01.356Z,42.17
2018-04-23T21:12:04.734Z,44.97
2018-04-23T21:17:08.713Z,30.00
2018-04-23T21:22:11.944Z,38.77
2018-04-23T21:27:15.079Z,36.57
2018-04-23T21:32:18.377Z,59.37
2018-04-23T21:37:21.854Z,34.90
2018-04-23T21:42:26.545Z,41.30
2018-04-23T21:47:29.577Z,33.77
2018-04-23T21:52:32.830Z,33.97
2018-04-23T21:57:36.125Z,24.27
2018-04-23T22:02:39.085Z,44.30
2018-04-23T22:07:42.250Z,47.63
2018-04-23T22:12:46.225Z,39.27
2018-04-23T22:17:49.456Z,47.33
2018-04-23T22:22:52.247Z,35.50
2018-04-23T22:27:56.248Z,43.43
2018-04-23T22:32:59.509Z,50.90
2018-04-23T22:38:02.961Z,41.87
2018-04-23T22:43:05.784Z,50.50
2018-04-23T22:48:08.583Z,23.10
2018-04-23T22:53:11.532Z,21.13
2018-04-23T22:58:15.739Z,28.60
2018-04-23T23:03:49.725Z,30.00
2018-04-23T23:08:53.754Z,35.03
2018-04-23T23:13:57.162Z,33.60
2018-04-23T23:18:59.971Z,33.80
2018-04-23T23:24:02.853Z,21.43
2018-04-23T23:29:05.674Z,20.77
2018-04-23T23:34:09.082Z,13.80
2018-04-23T23:39:12.278Z,18.13
2018-04-23T23:44:15.092Z,30.37
2018-04-23T23:49:17.897Z,37.67
2018-04-23T23:54:21.355Z,23.20
2018-04-23T23:59:24.476Z,18.30
